Time,TemperatureF,DewpointF,PressureIn,WindDirection,WindDirectionDegrees,WindSpeedMPH,WindSpeedGustMPH,Humidity,HourlyPrecipIn,Conditions,Clouds,dailyrainin,SoftwareType,DateUTC
2013-06-10 00:02:00,47.0,32.0,-100.00,North,-999,0.0,0.0,56,-99.99,,,-99.99,,2013-06-10 07:02:00,
2013-06-10 00:12:00,47.0,32.0,-100.00,North,-999,0.0,0.0,56,-99.99,,,-99.99,,2013-06-10 07:12:00,
2013-06-10 00:22:00,46.0,32.0,-100.00,North,-999,0.0,0.0,58,-99.99,,,-99.99,,2013-06-10 07:22:00,
2013-06-10 00:32:00,45.0,32.0,-100.00,North,-999,0.0,0.0,60,-99.99,,,-99.99,,2013-06-10 07:32:00,
2013-06-10 00:42:00,45.0,32.0,-100.00,North,-999,0.0,0.0,60,-99.99,,,-99.99,,2013-06-10 07:42:00,
2013-06-10 00:52:00,45.0,33.0,-100.00,North,-999,0.0,0.0,63,-99.99,,,-99.99,,2013-06-10 07:52:00,
2013-06-10 01:02:00,45.0,33.0,-100.00,North,-999,0.0,0.0,64,-99.99,,,-99.99,,2013-06-10 08:02:00,
2013-06-10 01:12:00,45.0,33.0,-100.00,North,-999,0.0,0.0,64,-99.99,,,-99.99,,2013-06-10 08:12:00,
2013-06-10 01:21:00,45.0,33.0,-100.00,North,-999,0.0,0.0,64,-99.99,,,-99.99,,2013-06-10 08:21:00,
2013-06-10 01:31:00,43.0,34.0,-100.00,North,-999,0.0,0.0,68,-99.99,,,-99.99,,2013-06-10 08:31:00,
2013-06-10 01:42:00,43.0,34.0,-100.00,North,-999,0.0,0.0,68,-99.99,,,-99.99,,2013-06-10 08:42:00,
2013-06-10 01:52:00,43.0,34.0,-100.00,North,-999,0.0,0.0,70,-99.99,,,-99.99,,2013-06-10 08:52:00,
2013-06-10 02:02:00,42.0,33.0,-100.00,North,-999,0.0,0.0,71,-99.99,,,-99.99,,2013-06-10 09:02:00,
2013-06-10 02:12:00,42.0,33.0,-100.00,North,-999,0.0,0.0,71,-99.99,,,-99.99,,2013-06-10 09:12:00,
2013-06-10 02:22:00,41.0,33.0,-100.00,North,-999,0.0,0.0,73,-99.99,,,-99.99,,2013-06-10 09:22:00,
2013-06-10 02:32:00,41.0,33.0,-100.00,North,-999,0.0,0.0,75,-99.99,,,-99.99,,2013-06-10 09:32:00,
2013-06-10 02:42:00,41.0,33.0,-100.00,North,-999,0.0,0.0,75,-99.99,,,-99.99,,2013-06-10 09:42:00,
2013-06-10 02:53:00,40.0,33.0,-100.00,North,-999,0.0,0.0,77,-99.99,,,-99.99,,2013-06-10 09:53:00,
2013-06-10 03:02:00,39.0,33.0,-100.00,North,-999,0.0,0.0,78,-99.99,,,-99.99,,2013-06-10 10:02:00,
2013-06-10 03:12:00,39.0,33.0,-100.00,North,-999,0.0,0.0,78,-99.99,,,-99.99,,2013-06-10 10:12:00,
2013-06-10 03:22:00,39.0,33.0,-100.00,North,-999,0.0,0.0,80,-99.99,,,-99.99,,2013-06-10 10:22:00,
2013-06-10 03:33:00,38.0,33.0,-100.00,North,-999,0.0,0.0,81,-99.99,,,-99.99,,2013-06-10 10:33:00,
2013-06-10 03:42:00,38.0,33.0,-100.00,North,-999,0.0,0.0,81,-99.99,,,-99.99,,2013-06-10 10:42:00,
2013-06-10 03:52:00,37.0,32.0,-100.00,North,-999,0.0,0.0,82,-99.99,,,-99.99,,2013-06-10 10:52:00,
2013-06-10 04:02:00,37.0,32.0,-100.00,North,-999,0.0,0.0,83,-99.99,,,-99.99,,2013-06-10 11:02:00,
2013-06-10 04:12:00,37.0,32.0,-100.00,North,-999,0.0,0.0,83,-99.99,,,-99.99,,2013-06-10 11:12:00,
2013-06-10 04:22:00,36.0,32.0,-100.00,North,-999,0.0,0.0,84,-99.99,,,-99.99,,2013-06-10 11:22:00,
2013-06-10 04:32:00,36.0,32.0,-100.00,North,-999,0.0,0.0,84,-99.99,,,-99.99,,2013-06-10 11:32:00,
2013-06-10 04:42:00,36.0,32.0,-100.00,North,-999,0.0,0.0,84,-99.99,,,-99.99,,2013-06-10 11:42:00,
2013-06-10 04:52:00,36.0,32.0,-100.00,North,-999,0.0,0.0,85,-99.99,,,-99.99,,2013-06-10 11:52:00,
2013-06-10 05:02:00,36.0,32.0,-100.00,North,-999,0.0,0.0,86,-99.99,,,-99.99,,2013-06-10 12:02:00,
2013-06-10 05:12:00,36.0,32.0,-100.00,North,-999,0.0,0.0,86,-99.99,,,-99.99,,2013-06-10 12:12:00,
2013-06-10 05:22:00,35.0,31.0,-100.00,North,-999,0.0,0.0,86,-99.99,,,-99.99,,2013-06-10 12:22:00,
2013-06-10 05:32:00,35.0,32.0,-100.00,North,-999,0.0,0.0,88,-99.99,,,-99.99,,2013-06-10 12:32:00,
2013-06-10 05:42:00,35.0,32.0,-100.00,North,-999,0.0,0.0,88,-99.99,,,-99.99,,2013-06-10 12:42:00,
2013-06-10 05:52:00,35.0,32.0,-100.00,North,-999,0.0,0.0,89,-99.99,,,-99.99,,2013-06-10 12:52:00,
2013-06-10 06:02:00,35.0,32.0,-100.00,North,-999,0.0,0.0,90,-99.99,,,-99.99,,2013-06-10 13:02:00,
2013-06-10 06:11:00,35.0,32.0,-100.00,North,-999,0.0,0.0,90,-99.99,,,-99.99,,2013-06-10 13:11:00,
2013-06-10 06:22:00,35.0,33.0,-100.00,North,-999,0.0,0.0,91,-99.99,,,-99.99,,2013-06-10 13:22:00,
2013-06-10 06:32:00,36.0,34.0,-100.00,North,-999,0.0,0.0,91,-99.99,,,-99.99,,2013-06-10 13:32:00,
2013-06-10 06:42:00,36.0,34.0,-100.00,North,-999,0.0,0.0,91,-99.99,,,-99.99,,2013-06-10 13:42:00,
2013-06-10 06:52:00,39.0,35.0,-100.00,North,-999,0.0,0.0,87,-99.99,,,-99.99,,2013-06-10 13:52:00,
2013-06-10 07:02:00,43.0,37.0,-100.00,North,-999,0.0,0.0,79,-99.99,,,-99.99,,2013-06-10 14:02:00,
2013-06-10 07:22:00,47.0,38.0,-100.00,North,-999,0.0,0.0,70,-99.99,,,-99.99,,2013-06-10 14:22:00,
2013-06-10 07:32:00,49.0,37.0,-100.00,North,-999,0.0,0.0,64,-99.99,,,-99.99,,2013-06-10 14:32:00,
2013-06-10 07:42:00,49.0,37.0,-100.00,North,-999,0.0,0.0,64,-99.99,,,-99.99,,2013-06-10 14:42:00,
2013-06-10 07:52:00,50.0,37.0,-100.00,North,-999,0.0,0.0,62,-99.99,,,-99.99,,2013-06-10 14:52:00,
2013-06-10 08:02:00,51.0,37.0,-100.00,North,-999,0.0,0.0,58,-99.99,,,-99.99,,2013-06-10 15:02:00,
2013-06-10 08:22:00,52.0,37.0,-100.00,North,-999,0.0,0.0,56,-99.99,,,-99.99,,2013-06-10 15:22:00,
2013-06-10 08:32:00,53.0,37.0,-100.00,North,-999,0.0,0.0,53,-99.99,,,-99.99,,2013-06-10 15:32:00,
2013-06-10 08:43:00,53.0,37.0,-100.00,North,-999,0.0,0.0,53,-99.99,,,-99.99,,2013-06-10 15:43:00,
2013-06-10 08:53:00,54.0,38.0,-100.00,North,-999,0.0,0.0,54,-99.99,,,-99.99,,2013-06-10 15:53:00,
2013-06-10 09:02:00,55.0,37.0,-100.00,North,-999,0.0,0.0,51,-99.99,,,-99.99,,2013-06-10 16:02:00,
2013-06-10 09:12:00,55.0,37.0,-100.00,North,-999,0.0,0.0,51,-99.99,,,-99.99,,2013-06-10 16:12:00,
2013-06-10 09:23:00,56.0,37.0,-100.00,North,-999,0.0,0.0,48,-99.99,,,-99.99,,2013-06-10 16:23:00,
2013-06-10 09:33:00,58.0,38.0,-100.00,North,-999,0.0,0.0,47,-99.99,,,-99.99,,2013-06-10 16:33:00,
2013-06-10 09:42:00,58.0,38.0,-100.00,North,-999,0.0,0.0,47,-99.99,,,-99.99,,2013-06-10 16:42:00,
2013-06-10 09:52:00,60.0,37.0,-100.00,North,-999,0.0,0.0,43,-99.99,,,-99.99,,2013-06-10 16:52:00,
2013-06-10 10:03:00,62.0,37.0,-100.00,North,-999,0.0,0.0,40,-99.99,,,-99.99,,2013-06-10 17:03:00,
2013-06-10 10:14:00,62.0,37.0,-100.00,North,-999,0.0,0.0,40,-99.99,,,-99.99,,2013-06-10 17:14:00,
2013-06-10 10:26:00,64.0,38.0,-100.00,North,-999,0.0,0.0,37,-99.99,,,-99.99,,2013-06-10 17:26:00,
2013-06-10 10:38:00,65.0,35.0,-100.00,North,-999,0.0,0.0,32,-99.99,,,-99.99,,2013-06-10 17:38:00,
2013-06-10 10:48:00,65.0,35.0,-100.00,North,-999,0.0,0.0,32,-99.99,,,-99.99,,2013-06-10 17:48:00,
2013-06-10 10:58:00,67.0,35.0,-100.00,North,-999,0.0,0.0,30,-99.99,,,-99.99,,2013-06-10 17:58:00,
2013-06-10 11:07:00,69.0,33.0,-100.00,North,-999,0.0,0.0,27,-99.99,,,-99.99,,2013-06-10 18:07:00,
2013-06-10 11:14:00,69.0,33.0,-100.00,North,-999,0.0,0.0,27,-99.99,,,-99.99,,2013-06-10 18:14:00,
2013-06-10 11:24:00,70.0,33.0,-100.00,North,-999,0.0,0.0,25,-99.99,,,-99.99,,2013-06-10 18:24:00,
2013-06-10 11:34:00,70.0,32.0,-100.00,North,-999,0.0,0.0,24,-99.99,,,-99.99,,2013-06-10 18:34:00,
2013-06-10 11:48:00,70.0,32.0,-100.00,North,-999,0.0,0.0,24,-99.99,,,-99.99,,2013-06-10 18:48:00,
2013-06-10 11:55:00,72.0,32.0,-100.00,North,-999,0.0,0.0,23,-99.99,,,-99.99,,2013-06-10 18:55:00,
2013-06-10 12:02:00,72.0,31.0,-100.00,North,-999,0.0,0.0,22,-99.99,,,-99.99,,2013-06-10 19:02:00,
2013-06-10 12:12:00,72.0,31.0,-100.00,North,-999,0.0,0.0,22,-99.99,,,-99.99,,2013-06-10 19:12:00,
2013-06-10 12:22:00,72.0,30.0,-100.00,North,-999,0.0,0.0,21,-99.99,,,-99.99,,2013-06-10 19:22:00,
2013-06-10 12:32:00,73.0,31.0,-100.00,North,-999,0.0,0.0,21,-99.99,,,-99.99,,2013-06-10 19:32:00,
2013-06-10 12:42:00,73.0,31.0,-100.00,North,-999,0.0,0.0,21,-99.99,,,-99.99,,2013-06-10 19:42:00,
2013-06-10 12:53:00,74.0,30.0,-100.00,North,-999,0.0,0.0,20,-99.99,,,-99.99,,2013-06-10 19:53:00,
2013-06-10 13:02:00,75.0,32.0,-100.00,North,-999,0.0,0.0,20,-99.99,,,-99.99,,2013-06-10 20:02:00,
2013-06-10 13:12:00,75.0,32.0,-100.00,North,-999,0.0,0.0,20,-99.99,,,-99.99,,2013-06-10 20:12:00,
2013-06-10 13:22:00,76.0,32.0,-100.00,North,-999,0.0,0.0,20,-99.99,,,-99.99,,2013-06-10 20:22:00,
2013-06-10 13:32:00,77.0,32.0,-100.00,North,-999,0.0,0.0,19,-99.99,,,-99.99,,2013-06-10 20:32:00,
2013-06-10 13:42:00,77.0,32.0,-100.00,North,-999,0.0,0.0,19,-99.99,,,-99.99,,2013-06-10 20:42:00,
2013-06-10 13:52:00,76.0,30.0,-100.00,North,-999,0.0,0.0,19,-99.99,,,-99.99,,2013-06-10 20:52:00,
2013-06-10 14:02:00,77.0,31.0,-100.00,North,-999,0.0,0.0,19,-99.99,,,-99.99,,2013-06-10 21:02:00,
2013-06-10 14:12:00,77.0,31.0,-100.00,North,-999,0.0,0.0,19,-99.99,,,-99.99,,2013-06-10 21:12:00,
2013-06-10 14:22:00,77.0,31.0,-100.00,North,-999,0.0,0.0,19,-99.99,,,-99.99,,2013-06-10 21:22:00,
2013-06-10 14:33:00,78.0,32.0,-100.00,North,-999,0.0,0.0,19,-99.99,,,-99.99,,2013-06-10 21:33:00,
2013-06-10 14:42:00,78.0,32.0,-100.00,North,-999,0.0,0.0,19,-99.99,,,-99.99,,2013-06-10 21:42:00,
2013-06-10 14:53:00,78.0,32.0,-100.00,North,-999,0.0,0.0,19,-99.99,,,-99.99,,2013-06-10 21:53:00,
2013-06-10 15:02:00,77.0,32.0,-100.00,North,-999,0.0,0.0,19,-99.99,,,-99.99,,2013-06-10 22:02:00,
2013-06-10 15:12:00,77.0,32.0,-100.00,North,-999,0.0,0.0,19,-99.99,,,-99.99,,2013-06-10 22:12:00,
2013-06-10 15:22:00,79.0,33.0,-100.00,North,-999,0.0,0.0,19,-99.99,,,-99.99,,2013-06-10 22:22:00,
2013-06-10 15:33:00,80.0,34.0,-100.00,North,-999,0.0,0.0,19,-99.99,,,-99.99,,2013-06-10 22:33:00,
2013-06-10 15:42:00,80.0,34.0,-100.00,North,-999,0.0,0.0,19,-99.99,,,-99.99,,2013-06-10 22:42:00,
2013-06-10 15:52:00,78.0,32.0,-100.00,North,-999,0.0,0.0,19,-99.99,,,-99.99,,2013-06-10 22:52:00,
2013-06-10 16:02:00,79.0,33.0,-100.00,North,-999,0.0,0.0,19,-99.99,,,-99.99,,2013-06-10 23:02:00,
2013-06-10 16:12:00,79.0,33.0,-100.00,North,-999,0.0,0.0,19,-99.99,,,-99.99,,2013-06-10 23:12:00,
2013-06-10 16:22:00,77.0,33.0,-100.00,North,-999,0.0,0.0,20,-99.99,,,-99.99,,2013-06-10 23:22:00,
2013-06-10 16:32:00,77.0,33.0,-100.00,North,-999,0.0,0.0,20,-99.99,,,-99.99,,2013-06-10 23:32:00,
2013-06-10 16:42:00,77.0,33.0,-100.00,North,-999,0.0,0.0,20,-99.99,,,-99.99,,2013-06-10 23:42:00,
2013-06-10 16:52:00,77.0,33.0,-100.00,North,-999,0.0,0.0,20,-99.99,,,-99.99,,2013-06-10 23:52:00,
2013-06-10 17:01:00,78.0,33.0,-100.00,North,-999,-999.0,-999.0,20,-99.99,,,-99.99,,2013-06-11 00:01:00,
2013-06-10 17:12:00,78.0,33.0,-100.00,North,-999,-999.0,-999.0,20,-99.99,,,-99.99,,2013-06-11 00:12:00,
2013-06-10 17:22:00,77.0,33.0,-100.00,North,-999,0.0,0.0,20,-99.99,,,-99.99,,2013-06-11 00:22:00,
2013-06-10 17:32:00,77.0,32.0,-100.00,North,-999,0.0,0.0,20,-99.99,,,-99.99,,2013-06-11 00:32:00,
2013-06-10 17:42:00,77.0,32.0,-100.00,North,-999,0.0,0.0,20,-99.99,,,-99.99,,2013-06-11 00:42:00,
2013-06-10 17:52:00,76.0,33.0,-100.00,North,-999,0.0,0.0,21,-99.99,,,-99.99,,2013-06-11 00:52:00,
2013-06-10 18:02:00,76.0,33.0,-100.00,North,-999,0.0,0.0,21,-99.99,,,-99.99,,2013-06-11 01:02:00,
2013-06-10 18:12:00,76.0,33.0,-100.00,North,-999,0.0,0.0,21,-99.99,,,-99.99,,2013-06-11 01:12:00,
2013-06-10 18:22:00,75.0,32.0,-100.00,North,-999,0.0,0.0,21,-99.99,,,-99.99,,2013-06-11 01:22:00,
2013-06-10 18:32:00,75.0,33.0,-100.00,North,-999,0.0,0.0,22,-99.99,,,-99.99,,2013-06-11 01:32:00,
2013-06-10 18:42:00,75.0,33.0,-100.00,North,-999,0.0,0.0,22,-99.99,,,-99.99,,2013-06-11 01:42:00,
2013-06-10 18:52:00,72.0,31.0,-100.00,North,-999,0.0,0.0,22,-99.99,,,-99.99,,2013-06-11 01:52:00,
2013-06-10 19:02:00,70.0,31.0,-100.00,North,-999,0.0,0.0,23,-99.99,,,-99.99,,2013-06-11 02:02:00,
2013-06-10 19:12:00,70.0,31.0,-100.00,North,-999,0.0,0.0,23,-99.99,,,-99.99,,2013-06-11 02:12:00,
2013-06-10 19:22:00,69.0,31.0,-100.00,North,-999,0.0,0.0,24,-99.99,,,-99.99,,2013-06-11 02:22:00,
2013-06-10 19:31:00,68.0,31.0,-100.00,North,-999,0.0,0.0,25,-99.99,,,-99.99,,2013-06-11 02:31:00,
2013-06-10 19:42:00,68.0,31.0,-100.00,North,-999,0.0,0.0,25,-99.99,,,-99.99,,2013-06-11 02:42:00,
2013-06-10 19:52:00,67.0,31.0,-100.00,North,-999,0.0,0.0,26,-99.99,,,-99.99,,2013-06-11 02:52:00,
2013-06-10 20:02:00,66.0,31.0,-100.00,North,-999,0.0,0.0,27,-99.99,,,-99.99,,2013-06-11 03:02:00,
2013-06-10 20:12:00,66.0,31.0,-100.00,North,-999,0.0,0.0,27,-99.99,,,-99.99,,2013-06-11 03:12:00,
2013-06-10 20:22:00,64.0,30.0,-100.00,North,-999,0.0,0.0,28,-99.99,,,-99.99,,2013-06-11 03:22:00,
2013-06-10 20:32:00,62.0,30.0,-100.00,North,-999,0.0,0.0,29,-99.99,,,-99.99,,2013-06-11 03:32:00,
2013-06-10 20:42:00,62.0,30.0,-100.00,North,-999,0.0,0.0,29,-99.99,,,-99.99,,2013-06-11 03:42:00,
2013-06-10 20:53:00,61.0,30.0,-100.00,North,-999,0.0,0.0,31,-99.99,,,-99.99,,2013-06-11 03:53:00,
2013-06-10 21:02:00,59.0,30.0,-100.00,North,-999,0.0,0.0,33,-99.99,,,-99.99,,2013-06-11 04:02:00,
2013-06-10 21:12:00,59.0,30.0,-100.00,North,-999,0.0,0.0,33,-99.99,,,-99.99,,2013-06-11 04:12:00,
2013-06-10 21:23:00,58.0,30.0,-100.00,North,-999,0.0,0.0,34,-99.99,,,-99.99,,2013-06-11 04:23:00,
2013-06-10 21:33:00,56.0,30.0,-100.00,North,-999,0.0,0.0,36,-99.99,,,-99.99,,2013-06-11 04:33:00,
2013-06-10 21:42:00,56.0,30.0,-100.00,North,-999,0.0,0.0,36,-99.99,,,-99.99,,2013-06-11 04:42:00,
2013-06-10 21:52:00,55.0,31.0,-100.00,North,-999,0.0,0.0,39,-99.99,,,-99.99,,2013-06-11 04:52:00,
2013-06-10 22:02:00,54.0,33.0,-100.00,North,-999,0.0,0.0,44,-99.99,,,-99.99,,2013-06-11 05:02:00,
2013-06-10 22:12:00,54.0,33.0,-100.00,North,-999,0.0,0.0,44,-99.99,,,-99.99,,2013-06-11 05:12:00,
2013-06-10 22:22:00,54.0,34.0,-100.00,North,-999,0.0,0.0,48,-99.99,,,-99.99,,2013-06-11 05:22:00,
2013-06-10 22:32:00,53.0,35.0,-100.00,North,-999,0.0,0.0,50,-99.99,,,-99.99,,2013-06-11 05:32:00,
2013-06-10 22:42:00,53.0,35.0,-100.00,North,-999,0.0,0.0,50,-99.99,,,-99.99,,2013-06-11 05:42:00,
2013-06-10 22:52:00,52.0,36.0,-100.00,North,-999,0.0,0.0,54,-99.99,,,-99.99,,2013-06-11 05:52:00,
2013-06-10 23:02:00,51.0,36.0,-100.00,North,-999,0.0,0.0,57,-99.99,,,-99.99,,2013-06-11 06:02:00,
2013-06-10 23:12:00,51.0,36.0,-100.00,North,-999,0.0,0.0,57,-99.99,,,-99.99,,2013-06-11 06:12:00,
2013-06-10 23:22:00,50.0,36.0,-100.00,North,-999,0.0,0.0,59,-99.99,,,-99.99,,2013-06-11 06:22:00,
2013-06-10 23:32:00,49.0,37.0,-100.00,North,-999,0.0,0.0,62,-99.99,,,-99.99,,2013-06-11 06:32:00,
2013-06-10 23:42:00,49.0,37.0,-100.00,North,-999,0.0,0.0,62,-99.99,,,-99.99,,2013-06-11 06:42:00,
2013-06-10 23:52:00,49.0,37.0,-100.00,North,-999,0.0,0.0,64,-99.99,,,-99.99,,2013-06-11 06:52:00,